• Join FlightAware (Why Join?)
  • Login
  • US Flag 
06:01AM EDT


 

Airport Tracker/Info


-or-


 

Live Flight TrackerFlight Track Log ✈ PCO218 ✈ 18-Feb-2014 ✈ CYPW - CYVR

Flight Track Log - Related Links

Times and Time Zones

All times are in EST time to prevent confusion due to time zone crossing. See the PCO218 flight status page for this flight to view local times or setup timezone preferences in your user account.

Time Position Orientation Groundspeed Altitude Reporting Facility
EST Latitude Longitude Course Direction KTS MPH feet Rate Location/Type
08:36PM 49.7833 -124.5000 136° Southeast 170 196 3,600  Level Vancouver Center
08:37PM 49.7500 -124.4500 136° Southeast 180 207 5,000 1,500 Climbing Vancouver Center
08:38PM 49.7167 -124.4000 136° Southeast 180 207 6,600 1,500 Climbing Vancouver Center
08:39PM 49.6833 -124.3333 128° Southeast 190 219 8,000 1,200 Climbing Vancouver Center
08:40PM 49.6333 -124.2667 139° Southeast 200 230 9,000 480 Climbing Vancouver Center
08:41PM 49.5833 -124.2167 147° Southeast 240 276 9,000  Level Vancouver Center
08:42PM 49.5333 -124.1333 133° Southeast 270 311 9,000  Level Vancouver Center
08:43PM 49.4833 -124.0333 128° Southeast 280 322 9,000  Level Vancouver Center
08:44PM 49.4333 -123.9500 133° Southeast 280 322 9,000  Level Vancouver Center
08:45PM 49.4000 -123.8167 111° Southeast 290 334 9,000  Level Vancouver Center
08:46PM 49.3667 -123.7167 117° Southeast 290 334 9,000  Level Vancouver Center
08:47PM 49.3333 -123.6167 117° Southeast 290 334 9,000  Level Vancouver Center
08:48PM 49.3000 -123.5000 114° Southeast 290 334 9,000 -300 Level Vancouver Center
08:49PM 49.2833 -123.3667 101° East 300 345 8,400 -660 Descending Vancouver Center
08:50PM 49.2667 -123.2333 101° East 290 334 7,700 -1,200 Descending Vancouver Center
08:51PM 49.2500 -123.1333 104° East 260 299 6,000 -1,620 Descending Vancouver Center
08:52PM 49.2333 -123.0500 107° East 240 276 4,500 -960 Descending Vancouver Center
08:53PM 49.2333 -122.9333 90° East 230 265 4,100 -660 Descending Vancouver Center
08:54PM 49.1833 -122.9000 156° South 210 242 3,200 -720 Descending Vancouver Center
08:55PM 49.1667 -122.9500 243° Southwest 180 207 2,700 -720 Descending Vancouver Center
08:56PM 49.1667 -123.0333 270° West 160 184 1,800 -840 Descending Vancouver Center
08:57PM 49.1667 -123.0833 270° West 140 161 1,100 -720 Descending Vancouver Center
08:58PM 49.1833 -123.1333 297° West 120 138 400 -540 Descending Vancouver Center
08:59PM 49.1833 -123.1833 270° West 120 138 100 -300 Descending Vancouver Center